createdAt,value
2022-10-01T00:01:17.650Z,18.13
2022-10-01T00:03:45.225Z,18.01
2022-10-01T00:06:12.582Z,18.02
2022-10-01T00:08:41.375Z,17.98
2022-10-01T00:11:10.236Z,18.05
2022-10-01T00:13:38.432Z,18.05
2022-10-01T00:16:07.729Z,18.01
2022-10-01T00:18:40.754Z,17.94
2022-10-01T00:21:08.783Z,17.97
2022-10-01T00:23:36.375Z,18.01
2022-10-01T00:26:09.488Z,17.97
2022-10-01T00:28:37.248Z,17.93
2022-10-01T00:31:07.255Z,17.78
2022-10-01T00:33:34.959Z,17.77
2022-10-01T00:36:03.080Z,17.89
2022-10-01T00:38:30.618Z,17.88
2022-10-01T00:40:58.646Z,17.86
2022-10-01T00:43:27.040Z,17.86
2022-10-01T00:45:55.273Z,17.98
2022-10-01T00:48:22.642Z,18.00
2022-10-01T00:50:50.252Z,17.97
2022-10-01T00:53:17.644Z,17.96
2022-10-01T00:55:45.864Z,17.99
2022-10-01T00:58:13.320Z,17.99
2022-10-01T01:00:40.707Z,18.06
2022-10-01T01:03:08.333Z,18.07
2022-10-01T01:05:36.262Z,18.00
2022-10-01T01:08:03.599Z,17.98
2022-10-01T01:10:34.553Z,18.10
2022-10-01T01:13:09.184Z,18.11
2022-10-01T01:15:37.644Z,18.04
2022-10-01T01:18:17.332Z,17.88
2022-10-01T01:20:44.953Z,17.87
2022-10-01T01:23:15.123Z,17.87
2022-10-01T01:25:45.841Z,17.77
2022-10-01T01:28:16.344Z,17.77
2022-10-01T01:30:44.512Z,17.90
2022-10-01T01:33:13.181Z,17.90
2022-10-01T01:35:42.157Z,17.88
2022-10-01T01:38:11.051Z,17.78
2022-10-01T01:40:38.451Z,17.82
2022-10-01T01:43:06.679Z,17.79
2022-10-01T01:45:34.149Z,17.63
2022-10-01T01:48:02.305Z,17.67
2022-10-01T01:50:30.566Z,17.51
2022-10-01T01:52:59.905Z,17.57
2022-10-01T01:55:27.246Z,17.61
2022-10-01T01:57:54.638Z,17.50
2022-10-01T02:00:22.634Z,17.35
2022-10-01T02:02:51.361Z,17.36
2022-10-01T02:05:19.505Z,17.25
2022-10-01T02:08:00.132Z,17.24
2022-10-01T02:10:41.122Z,17.37
2022-10-01T02:13:14.664Z,17.36
2022-10-01T02:15:48.497Z,17.24
2022-10-01T02:18:16.796Z,17.28
2022-10-01T02:20:46.345Z,17.35
2022-10-01T02:23:15.157Z,17.34
2022-10-01T02:25:43.775Z,17.26
2022-10-01T02:28:13.416Z,17.32
2022-10-01T02:30:40.902Z,17.30
2022-10-01T02:33:08.296Z,17.38
2022-10-01T02:35:35.629Z,17.34
2022-10-01T02:38:04.328Z,17.34
2022-10-01T02:40:32.558Z,17.43
2022-10-01T02:43:01.828Z,17.36
2022-10-01T02:45:32.590Z,17.30
2022-10-01T02:48:01.053Z,17.34
2022-10-01T02:50:29.020Z,17.36
2022-10-01T02:52:59.260Z,17.27
2022-10-01T02:55:28.871Z,17.22
2022-10-01T02:57:56.792Z,17.27
2022-10-01T03:00:25.338Z,17.35
2022-10-01T03:02:52.925Z,17.25
2022-10-01T03:05:22.539Z,17.29
2022-10-01T03:07:49.855Z,17.34
2022-10-01T03:10:17.313Z,17.43
2022-10-01T03:12:51.126Z,17.38
2022-10-01T03:15:19.406Z,17.32
2022-10-01T03:17:50.811Z,17.35
2022-10-01T03:20:18.231Z,17.35
2022-10-01T03:22:47.612Z,17.33
2022-10-01T03:25:15.284Z,17.30
2022-10-01T03:27:43.093Z,17.41
2022-10-01T03:30:10.954Z,17.37
2022-10-01T03:32:38.331Z,17.36
2022-10-01T03:35:06.625Z,17.20
2022-10-01T03:37:34.176Z,17.26
2022-10-01T03:40:01.761Z,17.24
2022-10-01T03:42:29.225Z,17.32
2022-10-01T03:44:57.485Z,17.28
2022-10-01T03:47:26.218Z,17.27
2022-10-01T03:49:53.653Z,17.24
2022-10-01T03:52:21.133Z,17.23
2022-10-01T03:54:48.656Z,17.27
2022-10-01T03:57:16.453Z,17.27
2022-10-01T03:59:43.811Z,17.23
2022-10-01T04:02:11.603Z,17.30
2022-10-01T04:04:39.713Z,17.37
2022-10-01T04:07:08.540Z,17.44
2022-10-01T04:09:38.281Z,17.48
2022-10-01T04:12:06.482Z,17.47
2022-10-01T04:14:36.765Z,17.44
2022-10-01T04:17:04.207Z,17.39
2022-10-01T04:19:31.647Z,17.45
2022-10-01T04:21:59.523Z,17.50
2022-10-01T04:24:26.911Z,17.53
2022-10-01T04:26:54.347Z,17.62
2022-10-01T04:29:21.758Z,17.63
2022-10-01T04:31:49.157Z,17.62
2022-10-01T04:34:16.804Z,17.44
2022-10-01T04:36:44.095Z,17.54
2022-10-01T04:39:14.552Z,17.58
2022-10-01T04:41:41.982Z,17.55
2022-10-01T04:44:10.417Z,17.61
2022-10-01T04:46:40.125Z,17.60
2022-10-01T04:49:08.240Z,17.67
2022-10-01T04:51:36.471Z,17.69
2022-10-01T04:54:04.134Z,17.66
2022-10-01T04:56:31.489Z,17.73
2022-10-01T04:58:58.800Z,17.82
2022-10-01T05:01:26.174Z,18.03
2022-10-01T05:03:53.903Z,18.06
2022-10-01T05:06:21.331Z,18.10
2022-10-01T05:08:49.779Z,18.07
2022-10-01T05:11:17.399Z,17.97
2022-10-01T05:13:44.826Z,17.96
2022-10-01T05:16:12.824Z,18.02
2022-10-01T05:18:43.579Z,17.96
2022-10-01T05:21:11.908Z,18.06
2022-10-01T05:23:39.297Z,18.24
2022-10-01T05:26:07.711Z,18.19
2022-10-01T05:28:35.648Z,18.31
2022-10-01T05:31:03.368Z,18.43
2022-10-01T05:33:31.002Z,18.46
2022-10-01T05:35:58.616Z,18.45
2022-10-01T05:38:26.168Z,18.62
2022-10-01T05:40:53.529Z,18.68
2022-10-01T05:43:20.928Z,18.63
2022-10-01T05:45:49.790Z,18.72
2022-10-01T05:48:17.202Z,18.85
2022-10-01T05:50:45.164Z,19.06
2022-10-01T05:53:12.610Z,19.10
2022-10-01T05:55:39.882Z,19.13
2022-10-01T05:58:09.844Z,19.15
2022-10-01T06:00:37.995Z,19.08
2022-10-01T06:03:05.867Z,19.07
2022-10-01T06:05:33.904Z,19.13
2022-10-01T06:08:01.536Z,19.23
2022-10-01T06:10:30.440Z,19.27
2022-10-01T06:13:05.508Z,19.36
2022-10-01T06:15:34.485Z,19.44
2022-10-01T06:18:02.317Z,19.65
2022-10-01T06:20:29.693Z,19.71
2022-10-01T06:22:57.874Z,19.68
2022-10-01T06:25:26.016Z,19.89
2022-10-01T06:27:55.716Z,19.91
2022-10-01T06:30:23.125Z,19.76
2022-10-01T06:32:50.505Z,19.62
2022-10-01T06:35:20.420Z,19.82
2022-10-01T06:37:47.703Z,19.97
2022-10-01T06:40:15.517Z,20.09
2022-10-01T06:42:47.119Z,20.33
2022-10-01T06:45:18.052Z,20.30
2022-10-01T06:47:45.808Z,20.30
2022-10-01T06:50:13.424Z,20.46
2022-10-01T06:52:49.651Z,20.46
2022-10-01T06:55:20.929Z,20.52
2022-10-01T06:57:50.491Z,20.71
2022-10-01T07:00:18.005Z,20.75
2022-10-01T07:02:45.522Z,21.04
2022-10-01T07:05:13.428Z,20.86
2022-10-01T07:07:40.731Z,20.82
2022-10-01T07:10:08.795Z,21.19
2022-10-01T07:12:36.488Z,21.43
2022-10-01T07:15:05.895Z,21.56
2022-10-01T07:17:34.560Z,21.70
2022-10-01T07:20:02.444Z,21.86
2022-10-01T07:22:30.029Z,22.23
2022-10-01T07:24:58.360Z,22.02
2022-10-01T07:27:25.918Z,22.01
2022-10-01T07:29:53.590Z,21.85
2022-10-01T07:32:21.692Z,21.92
2022-10-01T07:34:49.143Z,22.22
2022-10-01T07:37:16.779Z,21.89
2022-10-01T07:39:44.496Z,21.86
2022-10-01T07:42:12.177Z,22.63
2022-10-01T07:44:39.511Z,23.12
2022-10-01T07:47:07.009Z,24.54
2022-10-01T07:49:34.809Z,25.95
2022-10-01T07:52:02.285Z,25.90
2022-10-01T07:54:29.989Z,27.39
2022-10-01T07:56:57.628Z,28.10
2022-10-01T07:59:26.867Z,27.22
2022-10-01T08:01:54.766Z,26.42
2022-10-01T08:04:40.488Z,27.52
2022-10-01T08:07:08.554Z,29.45
2022-10-01T08:09:36.914Z,29.69
2022-10-01T08:12:05.067Z,30.79
2022-10-01T08:14:32.946Z,30.12
2022-10-01T08:17:00.317Z,29.83
2022-10-01T08:19:27.871Z,28.84
2022-10-01T08:21:55.172Z,27.67
2022-10-01T08:24:23.043Z,26.48
2022-10-01T08:26:55.112Z,25.17
2022-10-01T08:29:22.521Z,25.92
2022-10-01T08:31:50.340Z,26.87
2022-10-01T08:34:17.983Z,27.38
2022-10-01T08:36:46.009Z,27.24
2022-10-01T08:39:14.917Z,27.51
2022-10-01T08:41:45.635Z,27.59
2022-10-01T08:44:16.714Z,27.12
2022-10-01T08:46:45.321Z,27.29
2022-10-01T08:49:28.687Z,26.66
2022-10-01T08:51:57.268Z,27.50
2022-10-01T08:54:35.438Z,27.24
2022-10-01T08:57:03.655Z,27.96
2022-10-01T08:59:42.018Z,27.92
2022-10-01T09:02:22.330Z,28.51
2022-10-01T09:04:51.184Z,27.72
2022-10-01T09:07:18.550Z,27.51
2022-10-01T09:09:51.200Z,27.62
2022-10-01T09:12:26.418Z,27.08
2022-10-01T09:15:15.654Z,26.93
2022-10-01T09:17:55.463Z,27.32
2022-10-01T09:20:29.121Z,27.09
2022-10-01T09:23:15.463Z,26.29
2022-10-01T09:25:43.003Z,26.11
2022-10-01T09:28:12.931Z,25.26
2022-10-01T09:30:41.958Z,25.35
2022-10-01T09:33:14.657Z,25.25
2022-10-01T09:35:44.356Z,25.04
2022-10-01T09:38:15.919Z,25.13
2022-10-01T09:40:49.804Z,24.90
2022-10-01T09:43:23.137Z,25.02
2022-10-01T09:45:51.448Z,24.60
2022-10-01T09:48:21.873Z,24.65
2022-10-01T09:50:54.696Z,24.69
2022-10-01T09:53:23.479Z,24.65
2022-10-01T09:55:52.562Z,24.92
2022-10-01T09:58:24.241Z,24.87
2022-10-01T10:00:51.781Z,24.73
2022-10-01T10:03:26.590Z,24.88
2022-10-01T10:05:53.943Z,24.65
2022-10-01T10:08:37.003Z,24.90
2022-10-01T10:11:10.961Z,24.93
2022-10-01T10:13:42.118Z,24.81
2022-10-01T10:16:11.111Z,24.61
2022-10-01T10:18:39.436Z,24.91
2022-10-01T10:21:16.604Z,24.91
2022-10-01T10:23:53.835Z,25.02
2022-10-01T10:26:32.871Z,24.83
2022-10-01T10:29:02.815Z,24.78
2022-10-01T10:31:35.941Z,24.53
2022-10-01T10:34:08.252Z,24.89
2022-10-01T10:36:36.222Z,25.16
2022-10-01T10:39:05.887Z,25.00
2022-10-01T10:41:33.965Z,24.62
2022-10-01T10:44:04.546Z,24.59
2022-10-01T10:46:35.880Z,24.74
2022-10-01T10:49:08.356Z,24.93
2022-10-01T10:51:43.659Z,25.49
2022-10-01T10:54:21.391Z,25.06
2022-10-01T10:56:51.658Z,24.91
2022-10-01T10:59:18.998Z,25.28
2022-10-01T11:01:50.899Z,24.99
2022-10-01T11:04:20.871Z,25.06
2022-10-01T11:06:55.826Z,25.04
2022-10-01T11:09:23.173Z,24.65
2022-10-01T11:11:54.154Z,24.60
2022-10-01T11:14:23.887Z,24.31
2022-10-01T11:16:51.394Z,24.29
2022-10-01T11:19:21.561Z,24.31
2022-10-01T11:22:01.286Z,23.96
2022-10-01T11:24:30.879Z,23.96
2022-10-01T11:27:04.144Z,24.11
2022-10-01T11:29:33.367Z,23.84
2022-10-01T11:32:02.947Z,23.94
2022-10-01T11:34:37.627Z,23.95
2022-10-01T11:37:17.780Z,23.79
2022-10-01T11:39:45.908Z,23.83
2022-10-01T11:42:14.729Z,23.95
2022-10-01T11:44:47.386Z,23.92
2022-10-01T11:47:20.872Z,23.76
2022-10-01T11:49:51.342Z,23.64
2022-10-01T11:52:27.941Z,23.75
2022-10-01T11:55:33.004Z,23.93
2022-10-01T11:58:21.598Z,23.59
2022-10-01T12:00:53.600Z,23.63
2022-10-01T12:03:21.804Z,23.78
2022-10-01T12:05:49.550Z,23.85
2022-10-01T12:08:24.426Z,23.76
2022-10-01T12:10:55.561Z,23.88
2022-10-01T12:13:25.324Z,24.07
2022-10-01T12:16:11.766Z,24.06
2022-10-01T12:18:39.322Z,24.12
2022-10-01T12:21:07.918Z,24.13
2022-10-01T12:23:51.065Z,24.00
2022-10-01T12:26:24.115Z,23.98
2022-10-01T12:29:05.361Z,23.93
2022-10-01T12:31:42.172Z,23.87
2022-10-01T12:34:33.667Z,23.81
2022-10-01T12:37:06.536Z,24.20
2022-10-01T12:39:46.714Z,24.53
2022-10-01T12:42:17.072Z,24.54
2022-10-01T12:44:57.467Z,24.54
2022-10-01T12:47:24.842Z,24.42
2022-10-01T12:50:17.254Z,24.38
2022-10-01T12:52:57.770Z,24.38
2022-10-01T12:55:29.501Z,24.19
2022-10-01T12:58:23.422Z,24.09
2022-10-01T13:00:52.482Z,24.09
2022-10-01T13:03:37.446Z,24.18
2022-10-01T13:06:04.877Z,24.14
2022-10-01T13:08:39.051Z,24.07
2022-10-01T13:11:20.704Z,23.89
2022-10-01T13:13:49.980Z,23.68
2022-10-01T13:16:32.217Z,23.56
2022-10-01T13:19:03.354Z,23.52
2022-10-01T13:21:33.935Z,23.54
2022-10-01T13:24:16.805Z,23.60
2022-10-01T13:26:44.184Z,23.78
2022-10-01T13:29:21.722Z,23.89
2022-10-01T13:31:53.352Z,23.86
2022-10-01T13:34:25.970Z,23.84
2022-10-01T13:36:53.449Z,23.84
2022-10-01T13:39:21.996Z,23.86
2022-10-01T13:41:50.701Z,23.93
2022-10-01T13:44:23.321Z,23.90
2022-10-01T13:46:51.610Z,23.79
2022-10-01T13:49:25.448Z,23.83
2022-10-01T13:51:54.392Z,23.59
2022-10-01T13:54:23.966Z,23.66
2022-10-01T13:56:51.344Z,23.71
2022-10-01T13:59:30.887Z,23.72
2022-10-01T14:01:58.575Z,23.73
2022-10-01T14:04:31.491Z,23.69
2022-10-01T14:07:18.676Z,23.79
2022-10-01T14:09:46.467Z,23.59
2022-10-01T14:12:36.337Z,23.68
2022-10-01T14:15:31.016Z,23.57
2022-10-01T14:17:58.393Z,23.46
2022-10-01T14:20:26.453Z,23.61
2022-10-01T14:23:00.238Z,23.56
2022-10-01T14:25:53.907Z,23.49
2022-10-01T14:28:40.986Z,23.50
2022-10-01T14:31:11.414Z,23.45
2022-10-01T14:33:51.490Z,23.36
2022-10-01T14:36:20.143Z,23.34
2022-10-01T14:38:48.150Z,23.21
2022-10-01T14:41:19.678Z,23.15
2022-10-01T14:43:47.059Z,23.08
2022-10-01T14:46:16.525Z,22.95
2022-10-01T14:48:43.946Z,23.09
2022-10-01T14:51:22.682Z,22.88
2022-10-01T14:53:50.019Z,22.92
2022-10-01T14:56:17.437Z,22.95
2022-10-01T14:58:45.867Z,22.94
2022-10-01T15:01:17.397Z,22.70
2022-10-01T15:03:44.894Z,22.80
2022-10-01T15:06:22.127Z,22.63
2022-10-01T15:08:50.966Z,22.66
2022-10-01T15:11:25.369Z,22.53
2022-10-01T15:13:54.740Z,22.41
2022-10-01T15:16:22.630Z,22.41
2022-10-01T15:19:16.334Z,22.43
2022-10-01T15:21:52.066Z,22.48
2022-10-01T15:24:26.004Z,22.39
2022-10-01T15:26:53.812Z,22.32
2022-10-01T15:29:21.122Z,22.25
2022-10-01T15:31:49.669Z,22.11
2022-10-01T15:34:18.063Z,22.09
2022-10-01T15:36:48.515Z,22.00
2022-10-01T15:39:28.744Z,22.00
2022-10-01T15:41:56.965Z,21.97
2022-10-01T15:44:38.579Z,21.94
2022-10-01T15:47:15.285Z,21.97
2022-10-01T15:49:42.752Z,21.94
2022-10-01T15:52:31.837Z,22.01
2022-10-01T15:54:59.358Z,21.89
2022-10-01T15:57:27.386Z,21.83
2022-10-01T15:59:54.931Z,21.74
2022-10-01T16:02:26.020Z,21.83
2022-10-01T16:04:56.146Z,21.76
2022-10-01T16:07:28.842Z,21.61
2022-10-01T16:09:56.707Z,21.56
2022-10-01T16:12:24.367Z,21.51
2022-10-01T16:15:01.039Z,21.53
2022-10-01T16:17:32.344Z,21.39
2022-10-01T16:20:14.986Z,21.37
2022-10-01T16:22:43.293Z,21.20
2022-10-01T16:25:19.818Z,21.32
2022-10-01T16:27:48.586Z,21.25
2022-10-01T16:30:22.864Z,21.29
2022-10-01T16:32:50.560Z,21.11
2022-10-01T16:35:24.654Z,21.03
2022-10-01T16:37:53.402Z,21.14
2022-10-01T16:40:21.726Z,21.22
2022-10-01T16:42:50.640Z,21.27
2022-10-01T16:45:18.873Z,21.13
2022-10-01T16:47:46.339Z,21.03
2022-10-01T16:50:14.320Z,21.14
2022-10-01T16:52:41.950Z,21.11
2022-10-01T16:55:15.338Z,21.30
2022-10-01T16:57:42.904Z,21.28
2022-10-01T17:00:17.467Z,21.38
2022-10-01T17:02:45.442Z,21.48
2022-10-01T17:05:32.408Z,21.52
2022-10-01T17:08:01.084Z,21.58
2022-10-01T17:10:31.098Z,21.51
2022-10-01T17:13:25.044Z,21.52
2022-10-01T17:15:56.443Z,21.50
2022-10-01T17:18:24.039Z,21.45
2022-10-01T17:20:51.581Z,21.48
2022-10-01T17:23:19.631Z,21.30
2022-10-01T17:25:47.032Z,21.20
2022-10-01T17:28:15.424Z,21.07
2022-10-01T17:30:43.175Z,21.19
2022-10-01T17:33:11.642Z,21.25
2022-10-01T17:35:43.414Z,21.41
2022-10-01T17:38:11.153Z,21.37
2022-10-01T17:40:41.718Z,21.28
2022-10-01T17:43:12.609Z,21.45
2022-10-01T17:45:40.170Z,21.51
2022-10-01T17:48:07.628Z,21.45
2022-10-01T17:50:36.822Z,21.29
2022-10-01T17:53:08.106Z,21.28
2022-10-01T17:55:45.568Z,21.17
2022-10-01T17:58:13.135Z,21.11
2022-10-01T18:00:44.157Z,21.26
2022-10-01T18:03:13.429Z,21.33
2022-10-01T18:05:42.259Z,21.37
2022-10-01T18:08:09.810Z,21.24
2022-10-01T18:10:39.654Z,21.29
2022-10-01T18:13:18.439Z,21.43
2022-10-01T18:15:46.116Z,21.31
2022-10-01T18:19:45.792Z,21.29
2022-10-01T18:21:05.451Z,21.39
2022-10-01T18:23:33.188Z,21.24
2022-10-01T18:26:00.976Z,21.37
2022-10-01T18:28:28.491Z,21.32
2022-10-01T18:31:11.080Z,21.27
2022-10-01T18:33:40.516Z,21.30
2022-10-01T18:36:26.829Z,21.33
2022-10-01T18:39:39.060Z,21.41
2022-10-01T18:42:19.868Z,21.35
2022-10-01T18:44:57.718Z,21.23
2022-10-01T18:47:34.229Z,21.24
2022-10-01T18:50:20.495Z,21.21
2022-10-01T18:53:09.442Z,21.20
2022-10-01T18:55:37.158Z,21.19
2022-10-01T18:58:20.092Z,21.24
2022-10-01T19:00:50.982Z,21.15
2022-10-01T19:03:27.772Z,21.20
2022-10-01T19:06:07.623Z,21.03
2022-10-01T19:08:40.950Z,21.02
2022-10-01T19:11:18.001Z,21.11
2022-10-01T19:13:48.562Z,21.13
2022-10-01T19:16:16.421Z,20.97
2022-10-01T19:19:02.912Z,21.08
2022-10-01T19:21:33.444Z,21.02
2022-10-01T19:24:00.840Z,20.96
2022-10-01T19:26:31.628Z,21.06
2022-10-01T19:29:17.709Z,21.00
2022-10-01T19:31:47.310Z,21.00
2022-10-01T19:34:20.067Z,21.08
2022-10-01T19:36:50.622Z,21.04
2022-10-01T19:39:20.527Z,21.04
2022-10-01T19:41:58.665Z,21.04
2022-10-01T19:44:28.447Z,20.98
2022-10-01T19:46:58.145Z,21.01
2022-10-01T19:49:27.641Z,20.87
2022-10-01T19:51:59.242Z,20.82
2022-10-01T19:54:34.039Z,20.86
2022-10-01T19:57:06.613Z,20.81
2022-10-01T19:59:34.265Z,20.63
2022-10-01T20:02:04.632Z,20.62
2022-10-01T20:04:38.953Z,20.74
2022-10-01T20:07:24.648Z,20.60
2022-10-01T20:10:08.292Z,20.58
2022-10-01T20:12:39.671Z,20.51
2022-10-01T20:15:26.277Z,20.41
2022-10-01T20:18:13.279Z,20.40
2022-10-01T20:20:50.091Z,20.28
2022-10-01T20:23:36.831Z,20.28
2022-10-01T20:26:04.220Z,20.20
2022-10-01T20:28:51.884Z,20.24
2022-10-01T20:31:19.250Z,20.15
2022-10-01T20:33:57.056Z,20.08
2022-10-01T20:36:42.881Z,20.00
2022-10-01T20:39:16.555Z,19.99
2022-10-01T20:41:44.921Z,20.01
2022-10-01T20:44:14.366Z,19.91
2022-10-01T20:46:44.473Z,19.95
2022-10-01T20:49:20.911Z,19.89
2022-10-01T20:51:51.401Z,19.92
2022-10-01T20:54:23.273Z,19.89
2022-10-01T20:57:00.329Z,19.93
2022-10-01T20:59:29.590Z,19.82
2022-10-01T21:02:02.498Z,19.99
2022-10-01T21:04:34.355Z,19.84
2022-10-01T21:07:04.806Z,19.85
2022-10-01T21:09:35.915Z,19.70
2022-10-01T21:12:12.454Z,19.73
2022-10-01T21:14:46.414Z,19.62
2022-10-01T21:17:35.884Z,19.66
2022-10-01T21:20:03.206Z,19.62
2022-10-01T21:22:33.645Z,19.63
2022-10-01T21:25:12.959Z,19.59
2022-10-01T21:28:04.099Z,19.57
2022-10-01T21:30:53.144Z,19.48
2022-10-01T21:33:39.323Z,19.49
2022-10-01T21:36:06.824Z,19.50
2022-10-01T21:38:34.264Z,19.46
2022-10-01T21:41:16.873Z,19.45
2022-10-01T21:43:44.976Z,19.41
2022-10-01T21:46:18.290Z,19.42
2022-10-01T21:48:54.842Z,19.48
2022-10-01T21:51:40.580Z,19.50
2022-10-01T21:54:26.667Z,19.44
2022-10-01T21:57:12.530Z,19.50
2022-10-01T22:00:11.467Z,19.62
2022-10-01T22:03:11.381Z,19.50
2022-10-01T22:05:39.606Z,19.46
2022-10-01T22:08:27.177Z,19.62
2022-10-01T22:10:58.928Z,19.71
2022-10-01T22:13:29.879Z,19.56
2022-10-01T22:16:02.243Z,19.55
2022-10-01T22:18:29.843Z,19.52
2022-10-01T22:20:57.331Z,19.53
2022-10-01T22:23:24.714Z,19.49
2022-10-01T22:25:56.629Z,19.53
2022-10-01T22:28:27.663Z,19.60
2022-10-01T22:30:55.680Z,19.44
2022-10-01T22:33:35.082Z,19.28
2022-10-01T22:36:02.594Z,19.44
2022-10-01T22:38:42.003Z,19.39
2022-10-01T22:41:12.124Z,19.59
2022-10-01T22:43:41.622Z,19.61
2022-10-01T22:46:15.199Z,19.53
2022-10-01T22:48:48.754Z,19.56
2022-10-01T22:51:16.517Z,19.67
2022-10-01T22:53:46.666Z,19.59
2022-10-01T22:56:14.614Z,19.62
2022-10-01T22:58:42.192Z,19.59
2022-10-01T23:01:12.311Z,19.59
2022-10-01T23:03:42.661Z,19.60
2022-10-01T23:06:15.646Z,19.33
2022-10-01T23:08:46.121Z,19.51
2022-10-01T23:11:19.480Z,19.49
2022-10-01T23:13:49.899Z,19.43
2022-10-01T23:16:35.569Z,19.50
2022-10-01T23:19:12.975Z,19.43
2022-10-01T23:21:43.388Z,19.31
2022-10-01T23:24:10.756Z,19.17
2022-10-01T23:26:42.016Z,19.03
2022-10-01T23:29:12.592Z,18.99
2022-10-01T23:31:58.932Z,19.01
2022-10-01T23:34:37.662Z,19.17
2022-10-01T23:37:17.261Z,19.15
2022-10-01T23:39:45.793Z,19.29
2022-10-01T23:42:22.938Z,19.25
2022-10-01T23:44:58.291Z,19.19
2022-10-01T23:47:38.625Z,19.22
2022-10-01T23:50:06.588Z,19.27
2022-10-01T23:52:37.844Z,19.04
2022-10-01T23:55:27.887Z,18.98
2022-10-01T23:57:58.621Z,18.86
